createdAt,value
2019-03-30T00:01:09.793Z,46.92
2019-03-30T00:03:37.572Z,41.80
2019-03-30T00:06:05.054Z,43.70
2019-03-30T00:08:32.405Z,53.55
2019-03-30T00:10:59.730Z,48.35
2019-03-30T00:13:28.652Z,43.52
2019-03-30T00:15:57.246Z,51.88
2019-03-30T00:18:24.590Z,54.55
2019-03-30T00:20:51.913Z,59.67
2019-03-30T00:23:19.203Z,55.70
2019-03-30T00:25:46.484Z,50.30
2019-03-30T00:28:13.713Z,57.30
2019-03-30T00:30:43.353Z,55.58
2019-03-30T00:33:10.653Z,53.63
2019-03-30T00:35:39.240Z,64.17
2019-03-30T00:38:06.574Z,55.77
2019-03-30T00:40:33.950Z,54.20
2019-03-30T00:43:01.287Z,54.13
2019-03-30T00:45:28.634Z,53.85
2019-03-30T00:47:55.822Z,54.42
2019-03-30T00:50:23.131Z,55.38
2019-03-30T00:52:50.459Z,51.95
2019-03-30T00:55:17.685Z,55.50
2019-03-30T00:57:45.022Z,53.43
2019-03-30T01:00:12.260Z,54.80
2019-03-30T01:02:39.494Z,55.52
2019-03-30T01:05:06.736Z,55.70
2019-03-30T01:07:33.946Z,58.95
2019-03-30T01:10:03.117Z,57.80
2019-03-30T01:12:30.388Z,56.08
2019-03-30T01:15:00.246Z,59.42
2019-03-30T01:17:29.247Z,60.73
2019-03-30T01:20:02.795Z,58.02
2019-03-30T01:22:25.481Z,63.23
2019-03-30T01:24:52.848Z,59.50
2019-03-30T01:27:20.088Z,58.43
2019-03-30T01:29:47.318Z,61.05
2019-03-30T01:32:14.565Z,64.40
2019-03-30T01:34:41.892Z,59.03
2019-03-30T01:37:09.378Z,57.30
2019-03-30T01:39:36.703Z,64.67
2019-03-30T01:42:04.007Z,65.17
2019-03-30T01:44:31.284Z,63.83
2019-03-30T01:46:58.486Z,67.27
2019-03-30T01:49:26.693Z,67.37
2019-03-30T01:51:53.927Z,69.20
2019-03-30T01:54:21.201Z,68.50
2019-03-30T01:56:48.426Z,68.20
2019-03-30T01:59:15.827Z,69.53
2019-03-30T02:01:43.131Z,71.77
2019-03-30T02:04:10.442Z,69.55
2019-03-30T02:06:40.766Z,68.83
2019-03-30T02:09:08.043Z,69.03
2019-03-30T02:11:35.310Z,71.10
2019-03-30T02:14:02.542Z,68.87
2019-03-30T02:16:29.787Z,67.95
2019-03-30T02:18:56.998Z,67.97
2019-03-30T02:21:24.368Z,71.20
2019-03-30T02:23:51.595Z,72.37
2019-03-30T02:26:18.902Z,73.72
2019-03-30T02:28:46.307Z,73.22
2019-03-30T02:31:13.566Z,68.87
2019-03-30T02:33:40.959Z,68.80
2019-03-30T02:36:08.790Z,70.50
2019-03-30T02:38:37.513Z,71.40
2019-03-30T02:41:04.854Z,75.03
2019-03-30T02:43:32.143Z,72.42
2019-03-30T02:45:59.374Z,71.75
2019-03-30T02:48:26.658Z,74.60
2019-03-30T02:50:53.922Z,74.93
2019-03-30T02:53:21.424Z,70.67
2019-03-30T02:55:48.829Z,71.83
2019-03-30T02:58:16.203Z,67.97
2019-03-30T03:00:43.560Z,69.17
2019-03-30T03:03:10.766Z,72.85
2019-03-30T03:05:39.728Z,73.33
2019-03-30T03:08:07.065Z,73.45
2019-03-30T03:10:34.344Z,68.12
2019-03-30T03:13:01.736Z,74.03
2019-03-30T03:15:29.103Z,74.12
2019-03-30T03:17:56.404Z,72.72
2019-03-30T03:20:23.689Z,73.97
2019-03-30T03:22:50.887Z,72.20
2019-03-30T03:25:18.187Z,70.87
2019-03-30T03:27:45.590Z,72.05
2019-03-30T03:30:12.902Z,81.22
2019-03-30T03:32:40.268Z,70.37
2019-03-30T03:35:07.594Z,72.27
2019-03-30T03:37:44.425Z,83.00
2019-03-30T03:40:05.955Z,76.17
2019-03-30T03:42:33.358Z,77.75
2019-03-30T03:45:00.709Z,77.32
2019-03-30T03:47:28.006Z,74.60
2019-03-30T03:49:55.338Z,76.37
2019-03-30T03:52:22.769Z,77.75
2019-03-30T03:54:50.573Z,78.40
2019-03-30T03:57:17.819Z,78.87
2019-03-30T03:59:45.227Z,72.20
2019-03-30T04:02:12.900Z,79.45
2019-03-30T04:04:40.194Z,76.95
2019-03-30T04:07:07.533Z,78.63
2019-03-30T04:09:34.754Z,80.67
2019-03-30T04:12:03.815Z,78.52
2019-03-30T04:14:31.054Z,80.83
2019-03-30T04:16:58.282Z,81.30
2019-03-30T04:19:25.554Z,78.17
2019-03-30T04:21:52.899Z,79.97
2019-03-30T04:24:20.184Z,85.12
2019-03-30T04:26:47.497Z,93.30
2019-03-30T04:29:14.719Z,107.32
2019-03-30T04:31:43.606Z,98.45
2019-03-30T04:34:10.996Z,152.80
2019-03-30T04:36:38.257Z,133.60
2019-03-30T04:39:06.103Z,161.50
2019-03-30T04:41:33.509Z,154.50
2019-03-30T04:44:00.871Z,153.62
2019-03-30T04:46:28.691Z,155.45
2019-03-30T04:48:55.920Z,143.15
2019-03-30T04:51:23.416Z,89.85
2019-03-30T04:53:50.637Z,144.80
2019-03-30T04:56:18.008Z,159.43
2019-03-30T04:58:47.002Z,149.47
2019-03-30T05:01:14.386Z,157.85
2019-03-30T05:03:41.733Z,165.20
2019-03-30T05:06:08.979Z,176.80
2019-03-30T05:08:36.311Z,181.45
2019-03-30T05:11:03.539Z,169.72
2019-03-30T05:13:30.838Z,172.90
2019-03-30T05:15:58.313Z,158.55
2019-03-30T05:18:25.579Z,118.20
2019-03-30T05:20:52.829Z,107.25
2019-03-30T05:23:20.133Z,126.55
2019-03-30T05:25:47.386Z,148.75
2019-03-30T05:28:14.638Z,155.85
2019-03-30T05:30:42.065Z,157.52
2019-03-30T05:33:09.339Z,115.47
2019-03-30T05:35:36.587Z,106.58
2019-03-30T05:38:03.872Z,92.73
2019-03-30T05:40:31.275Z,110.15
2019-03-30T05:42:58.723Z,96.83
2019-03-30T05:45:25.964Z,141.92
2019-03-30T05:47:53.283Z,103.07
2019-03-30T05:50:20.494Z,122.78
2019-03-30T05:52:47.679Z,133.15
2019-03-30T05:55:15.065Z,133.10
2019-03-30T05:57:42.363Z,136.28
2019-03-30T06:00:12.683Z,123.85
2019-03-30T06:02:40.007Z,130.57
2019-03-30T06:05:07.768Z,102.80
2019-03-30T06:07:35.119Z,111.30
2019-03-30T06:10:02.381Z,107.50
2019-03-30T06:12:29.632Z,106.23
2019-03-30T06:14:56.936Z,108.63
2019-03-30T06:17:24.192Z,91.60
2019-03-30T06:19:51.627Z,108.17
2019-03-30T06:22:18.989Z,87.17
2019-03-30T06:24:46.303Z,79.40
2019-03-30T06:27:13.615Z,96.90
2019-03-30T06:29:40.862Z,77.42
2019-03-30T06:32:08.057Z,79.67
2019-03-30T06:34:35.362Z,80.32
2019-03-30T06:37:02.800Z,100.85
2019-03-30T06:39:30.023Z,102.17
2019-03-30T06:41:57.409Z,98.12
2019-03-30T06:44:24.690Z,91.32
2019-03-30T06:46:52.050Z,81.72
2019-03-30T06:49:19.308Z,86.97
2019-03-30T06:51:46.639Z,88.27
2019-03-30T06:54:14.908Z,87.42
2019-03-30T06:56:43.008Z,84.90
2019-03-30T06:59:10.212Z,81.80
2019-03-30T07:01:37.426Z,80.92
2019-03-30T07:04:06.420Z,74.32
2019-03-30T07:06:33.704Z,77.32
2019-03-30T07:09:00.940Z,71.10
2019-03-30T07:11:28.332Z,71.35
2019-03-30T07:13:55.932Z,70.90
2019-03-30T07:16:23.325Z,74.03
2019-03-30T07:18:50.783Z,72.00
2019-03-30T07:21:18.043Z,70.65
2019-03-30T07:23:45.369Z,65.83
2019-03-30T07:26:12.693Z,68.55
2019-03-30T07:28:39.972Z,60.12
2019-03-30T07:31:07.216Z,66.35
2019-03-30T07:33:34.564Z,66.50
2019-03-30T07:36:01.904Z,61.00
2019-03-30T07:38:29.233Z,54.25
2019-03-30T07:40:56.659Z,56.35
2019-03-30T07:43:23.987Z,52.27
2019-03-30T07:45:51.270Z,51.33
2019-03-30T07:48:18.579Z,47.15
2019-03-30T07:50:45.852Z,42.55
2019-03-30T07:53:25.515Z,42.43
2019-03-30T07:55:42.238Z,38.63
2019-03-30T07:58:15.515Z,40.43
2019-03-30T08:00:43.440Z,40.85
2019-03-30T08:03:10.728Z,42.38
2019-03-30T08:05:38.148Z,45.17
2019-03-30T08:08:05.480Z,41.10
2019-03-30T08:10:32.785Z,40.95
2019-03-30T08:13:01.722Z,40.12
2019-03-30T08:15:29.105Z,40.40
2019-03-30T08:17:56.398Z,43.58
2019-03-30T08:23:13.370Z,44.40
2019-03-30T08:25:42.263Z,46.80
2019-03-30T08:28:09.483Z,41.05
2019-03-30T08:30:36.812Z,42.70
2019-03-30T08:33:05.788Z,38.15
2019-03-30T08:35:33.326Z,40.98
2019-03-30T08:38:00.622Z,43.33
2019-03-30T08:40:29.596Z,42.73
2019-03-30T08:42:56.863Z,39.35
2019-03-30T08:45:24.115Z,37.98
2019-03-30T08:47:51.863Z,34.58
2019-03-30T08:50:19.110Z,32.65
2019-03-30T08:52:46.697Z,33.95
2019-03-30T08:55:13.999Z,36.48
2019-03-30T08:57:47.194Z,39.73
2019-03-30T09:00:16.060Z,38.02
2019-03-30T09:02:43.395Z,36.50
2019-03-30T09:05:10.675Z,35.48
2019-03-30T09:07:38.027Z,34.08
2019-03-30T09:10:08.012Z,33.18
2019-03-30T09:12:36.650Z,32.00
2019-03-30T09:15:05.136Z,34.63
2019-03-30T09:17:32.429Z,35.68
2019-03-30T09:19:59.739Z,36.42
2019-03-30T09:22:27.123Z,34.58
2019-03-30T09:24:54.448Z,37.67
2019-03-30T09:27:21.734Z,37.70
2019-03-30T09:29:49.073Z,36.23
2019-03-30T09:32:16.458Z,36.28
2019-03-30T09:34:45.494Z,37.50
2019-03-30T09:37:12.811Z,38.17
2019-03-30T09:39:40.102Z,41.02
2019-03-30T09:42:09.726Z,41.77
2019-03-30T09:44:36.973Z,42.93
2019-03-30T09:47:04.240Z,42.75
2019-03-30T09:49:31.443Z,42.53
2019-03-30T09:52:01.109Z,43.63
2019-03-30T09:54:29.230Z,43.98
2019-03-30T09:56:56.432Z,42.03
2019-03-30T09:59:23.754Z,46.70
2019-03-30T10:01:51.040Z,45.13
2019-03-30T10:04:18.336Z,46.87
2019-03-30T10:06:48.436Z,51.00
2019-03-30T10:09:15.679Z,48.47
2019-03-30T10:11:43.022Z,45.97
2019-03-30T10:14:11.926Z,46.88
2019-03-30T10:16:39.259Z,51.02
2019-03-30T10:19:06.583Z,48.38
2019-03-30T10:21:35.020Z,49.50
2019-03-30T10:24:02.333Z,48.40
2019-03-30T10:26:29.533Z,49.60
2019-03-30T10:28:58.454Z,52.50
2019-03-30T10:31:25.658Z,49.42
2019-03-30T10:33:52.877Z,51.28
2019-03-30T10:36:20.121Z,50.43
2019-03-30T10:38:47.378Z,50.92
2019-03-30T10:41:14.722Z,51.13
2019-03-30T10:43:42.092Z,53.33
2019-03-30T10:46:09.313Z,52.57
2019-03-30T10:48:36.499Z,53.30
2019-03-30T10:51:03.711Z,51.87
2019-03-30T10:53:30.920Z,51.97
2019-03-30T10:55:58.141Z,51.27
2019-03-30T10:58:26.024Z,55.10
2019-03-30T11:00:53.276Z,54.95
2019-03-30T11:03:20.604Z,58.48
2019-03-30T11:05:47.938Z,55.25
2019-03-30T11:08:15.137Z,56.00
2019-03-30T11:10:42.344Z,55.92
2019-03-30T11:13:10.487Z,56.55
2019-03-30T11:15:37.716Z,58.30
2019-03-30T11:18:05.008Z,58.55
2019-03-30T11:20:32.409Z,58.00
2019-03-30T11:22:59.734Z,61.23
2019-03-30T11:25:27.023Z,59.93
2019-03-30T11:27:56.658Z,59.80
2019-03-30T11:30:26.674Z,60.58
2019-03-30T11:32:54.000Z,58.90
2019-03-30T11:35:21.363Z,59.63
2019-03-30T11:37:48.634Z,61.95
2019-03-30T11:40:16.030Z,63.90
2019-03-30T11:42:43.285Z,62.17
2019-03-30T11:45:10.685Z,63.73
2019-03-30T11:47:38.193Z,64.90
2019-03-30T11:50:06.123Z,61.33
2019-03-30T11:52:33.459Z,65.47
2019-03-30T11:55:00.757Z,75.12
2019-03-30T11:57:28.067Z,39.30
2019-03-30T11:59:55.475Z,36.68
2019-03-30T12:02:28.607Z,42.07
2019-03-30T12:04:57.320Z,43.13
2019-03-30T12:07:24.626Z,44.15
2019-03-30T12:09:51.926Z,44.08
2019-03-30T12:12:19.307Z,45.83
2019-03-30T12:14:46.721Z,45.70
2019-03-30T12:17:13.986Z,47.70
2019-03-30T12:19:41.302Z,50.60
2019-03-30T12:22:08.725Z,49.60
2019-03-30T12:24:37.108Z,50.95
2019-03-30T12:29:56.556Z,54.13
2019-03-30T12:32:23.750Z,77.17
2019-03-30T12:34:51.276Z,84.35
2019-03-30T12:37:18.611Z,81.60
2019-03-30T12:39:46.881Z,81.50
2019-03-30T12:42:14.129Z,81.42
2019-03-30T12:44:42.480Z,91.40
2019-03-30T12:47:10.503Z,83.13
2019-03-30T12:49:38.009Z,82.40
2019-03-30T12:52:05.255Z,84.90
2019-03-30T12:54:32.611Z,87.33
2019-03-30T12:57:01.432Z,86.22
2019-03-30T12:59:28.714Z,85.05
2019-03-30T13:01:56.056Z,83.47
2019-03-30T13:04:23.464Z,85.00
2019-03-30T13:06:53.494Z,61.37
2019-03-30T13:09:20.798Z,58.40
2019-03-30T13:11:48.056Z,60.03
2019-03-30T13:14:15.446Z,72.03
2019-03-30T13:16:42.658Z,70.80
2019-03-30T13:19:09.923Z,72.05
2019-03-30T13:21:52.514Z,76.82
2019-03-30T13:27:08.943Z,83.62
2019-03-30T13:29:40.914Z,73.47
2019-03-30T13:32:15.298Z,80.57
2019-03-30T13:34:47.827Z,78.07
2019-03-30T13:37:15.504Z,86.60
2019-03-30T13:39:42.720Z,94.80
2019-03-30T13:42:09.923Z,99.75
2019-03-30T13:44:37.168Z,100.02
2019-03-30T13:47:04.624Z,100.90
2019-03-30T13:49:31.943Z,100.90
2019-03-30T13:51:59.209Z,98.52
2019-03-30T13:54:26.514Z,100.02
2019-03-30T13:56:55.342Z,95.62
2019-03-30T13:59:22.613Z,96.40
2019-03-30T14:01:49.894Z,96.08
2019-03-30T14:04:17.107Z,95.57
2019-03-30T14:06:46.740Z,98.50
2019-03-30T14:09:14.107Z,95.10
2019-03-30T14:11:41.435Z,96.60
2019-03-30T14:14:08.814Z,87.78
2019-03-30T14:16:37.388Z,89.70
2019-03-30T14:19:04.784Z,82.72
2019-03-30T14:21:33.099Z,80.10
2019-03-30T14:24:00.483Z,79.07
2019-03-30T14:26:31.511Z,74.27
2019-03-30T14:28:59.773Z,75.03
2019-03-30T14:31:27.059Z,75.95
2019-03-30T14:33:54.366Z,78.87
2019-03-30T14:36:21.725Z,75.70
2019-03-30T14:38:49.125Z,68.90
2019-03-30T14:41:16.437Z,70.17
2019-03-30T14:43:43.709Z,66.97
2019-03-30T14:46:10.919Z,69.15
2019-03-30T14:48:38.231Z,62.13
2019-03-30T14:51:05.493Z,54.65
2019-03-30T14:53:32.773Z,51.92
2019-03-30T14:56:00.158Z,45.37
2019-03-30T14:58:27.545Z,35.95
2019-03-30T15:00:55.059Z,32.40
2019-03-30T15:03:22.399Z,32.17
2019-03-30T15:05:51.298Z,35.55
2019-03-30T15:08:18.547Z,38.08
2019-03-30T15:10:45.785Z,41.70
2019-03-30T15:13:14.558Z,44.00
2019-03-30T15:15:41.859Z,53.23
2019-03-30T15:18:09.145Z,55.95
2019-03-30T15:20:36.378Z,58.23
2019-03-30T15:23:03.639Z,58.33
2019-03-30T15:25:36.132Z,57.93
2019-03-30T15:28:03.403Z,61.88
2019-03-30T15:30:30.731Z,58.83
2019-03-30T15:32:58.010Z,59.07
2019-03-30T15:35:25.320Z,63.43
2019-03-30T15:37:53.392Z,65.97
2019-03-30T15:40:21.071Z,68.33
2019-03-30T15:42:48.341Z,68.80
2019-03-30T15:45:17.167Z,74.17
2019-03-30T15:47:44.364Z,71.55
2019-03-30T15:50:11.585Z,75.60
2019-03-30T15:52:38.857Z,74.50
2019-03-30T15:55:06.412Z,69.82
2019-03-30T15:57:33.777Z,68.83
2019-03-30T16:00:01.584Z,71.72
2019-03-30T16:02:30.444Z,67.82
2019-03-30T16:04:59.404Z,72.15
2019-03-30T16:07:27.013Z,66.90
2019-03-30T16:09:54.349Z,68.00
2019-03-30T16:12:23.269Z,68.83
2019-03-30T16:14:51.264Z,70.22
2019-03-30T16:17:18.554Z,67.57
2019-03-30T16:19:49.620Z,65.47
2019-03-30T16:22:21.271Z,69.50
2019-03-30T16:24:48.938Z,73.50
2019-03-30T16:27:28.066Z,67.13
2019-03-30T16:29:45.444Z,69.62
2019-03-30T16:32:12.637Z,72.85
2019-03-30T16:34:41.505Z,69.07
2019-03-30T16:37:08.795Z,68.60
2019-03-30T16:39:36.162Z,70.03
2019-03-30T16:42:03.507Z,65.10
2019-03-30T16:44:30.724Z,69.37
2019-03-30T16:46:59.603Z,68.22
2019-03-30T16:49:29.969Z,70.97
2019-03-30T16:51:57.356Z,69.75
2019-03-30T16:54:24.760Z,66.20
2019-03-30T16:56:53.740Z,68.00
2019-03-30T16:59:20.994Z,71.62
2019-03-30T17:01:51.535Z,64.95
2019-03-30T17:04:18.853Z,69.77
2019-03-30T17:06:46.130Z,70.62
2019-03-30T17:09:14.655Z,67.67
2019-03-30T17:11:42.060Z,67.82
2019-03-30T17:14:11.628Z,70.73
2019-03-30T17:16:38.958Z,64.20
2019-03-30T17:19:06.279Z,67.78
2019-03-30T17:21:33.636Z,67.05
2019-03-30T17:24:00.958Z,67.10
2019-03-30T17:26:28.242Z,65.80
2019-03-30T17:28:55.449Z,62.00
2019-03-30T17:31:22.664Z,65.50
2019-03-30T17:33:51.580Z,65.10
2019-03-30T17:36:18.977Z,65.72
2019-03-30T17:38:46.361Z,63.63
2019-03-30T17:41:13.675Z,61.90
2019-03-30T17:43:41.032Z,60.97
2019-03-30T17:46:08.292Z,58.78
2019-03-30T17:48:35.541Z,61.88
2019-03-30T17:51:02.817Z,61.42
2019-03-30T17:53:30.199Z,60.90
2019-03-30T17:55:57.472Z,62.63
2019-03-30T17:58:24.734Z,64.95
2019-03-30T18:00:52.007Z,62.73
2019-03-30T18:03:19.359Z,61.70
2019-03-30T18:05:49.501Z,62.70
2019-03-30T18:08:16.909Z,68.20
2019-03-30T18:10:44.180Z,64.92
2019-03-30T18:13:11.631Z,70.62
2019-03-30T18:15:38.927Z,69.42
2019-03-30T18:18:06.310Z,68.92
2019-03-30T18:20:34.855Z,71.92
2019-03-30T18:23:02.132Z,73.05
2019-03-30T18:25:29.481Z,68.37
2019-03-30T18:27:56.688Z,73.12
2019-03-30T18:30:34.324Z,72.87
2019-03-30T18:33:01.746Z,74.77
2019-03-30T18:35:28.990Z,72.80
2019-03-30T18:37:56.309Z,73.47
2019-03-30T18:40:27.813Z,75.78
2019-03-30T18:42:55.091Z,74.53
2019-03-30T18:45:25.964Z,77.62
2019-03-30T18:47:53.614Z,74.47
2019-03-30T18:50:20.869Z,79.97
2019-03-30T18:52:48.125Z,80.92
2019-03-30T18:55:17.071Z,82.92
2019-03-30T18:57:44.264Z,79.60
2019-03-30T19:00:13.251Z,81.45
2019-03-30T19:02:46.377Z,84.27
2019-03-30T19:05:18.540Z,89.42
2019-03-30T19:07:45.855Z,95.38
2019-03-30T19:10:13.229Z,95.85
2019-03-30T19:12:41.856Z,103.07
2019-03-30T19:15:09.107Z,102.32
2019-03-30T19:17:36.411Z,109.03
2019-03-30T19:20:04.931Z,134.18
2019-03-30T19:22:32.191Z,123.50
2019-03-30T19:25:00.350Z,118.00
2019-03-30T19:27:28.340Z,113.08
2019-03-30T19:29:55.682Z,120.17
2019-03-30T19:32:22.947Z,115.07
2019-03-30T19:34:50.197Z,117.33
2019-03-30T19:37:17.578Z,116.05
2019-03-30T19:39:44.868Z,120.35
2019-03-30T19:42:15.943Z,120.63
2019-03-30T19:44:43.547Z,118.60
2019-03-30T19:47:10.874Z,118.02
2019-03-30T19:49:38.263Z,115.22
2019-03-30T19:52:05.803Z,123.18
2019-03-30T19:54:33.208Z,116.05
2019-03-30T19:57:00.592Z,116.20
2019-03-30T19:59:27.809Z,127.05
2019-03-30T20:01:55.157Z,121.28
2019-03-30T20:04:22.388Z,125.30
2019-03-30T20:06:49.662Z,127.82
2019-03-30T20:09:20.483Z,124.45
2019-03-30T20:11:45.949Z,122.65
2019-03-30T20:14:13.240Z,120.50
2019-03-30T20:16:42.503Z,126.07
2019-03-30T20:19:12.714Z,128.00
2019-03-30T20:21:38.798Z,124.75
2019-03-30T20:24:06.004Z,127.50
2019-03-30T20:26:33.356Z,127.17
2019-03-30T20:29:00.808Z,127.40
2019-03-30T20:31:28.065Z,130.80
2019-03-30T20:33:55.668Z,135.85
2019-03-30T20:36:22.902Z,130.90
2019-03-30T20:38:50.186Z,129.90
2019-03-30T20:41:17.463Z,140.68
2019-03-30T20:43:44.944Z,127.27
2019-03-30T20:46:12.777Z,128.30
2019-03-30T20:48:39.990Z,128.25
2019-03-30T20:51:07.362Z,129.70
2019-03-30T20:53:34.564Z,132.10
2019-03-30T20:56:01.841Z,131.80
2019-03-30T20:58:29.233Z,135.22
2019-03-30T21:00:56.422Z,129.82
2019-03-30T21:03:23.790Z,137.28
2019-03-30T21:05:51.037Z,133.50
2019-03-30T21:08:18.453Z,135.82
2019-03-30T21:10:45.753Z,137.37
2019-03-30T21:13:12.968Z,145.43
2019-03-30T21:15:40.234Z,142.22
2019-03-30T21:18:07.623Z,146.07
2019-03-30T21:20:36.581Z,139.57
2019-03-30T21:23:03.910Z,143.40
2019-03-30T21:25:31.167Z,119.77
2019-03-30T21:27:58.510Z,126.15
2019-03-30T21:30:25.831Z,114.47
2019-03-30T21:32:53.309Z,117.00
2019-03-30T21:35:20.587Z,115.62
2019-03-30T21:37:47.866Z,109.93
2019-03-30T21:40:15.155Z,101.70
2019-03-30T21:42:44.155Z,98.33
2019-03-30T21:45:14.101Z,93.60
2019-03-30T21:47:41.382Z,96.32
2019-03-30T21:50:08.610Z,89.42
2019-03-30T21:52:35.824Z,87.73
2019-03-30T21:55:03.257Z,84.90
2019-03-30T21:57:33.319Z,74.15
2019-03-30T22:00:09.956Z,67.78
2019-03-30T22:02:29.686Z,65.15
2019-03-30T22:04:56.970Z,54.45
2019-03-30T22:07:24.302Z,54.53
2019-03-30T22:09:51.683Z,49.55
2019-03-30T22:12:18.905Z,50.35
2019-03-30T22:14:46.179Z,44.35
2019-03-30T22:17:13.469Z,44.33
2019-03-30T22:19:40.793Z,38.35
2019-03-30T22:22:08.031Z,39.48
2019-03-30T22:24:35.413Z,40.33
2019-03-30T22:27:03.352Z,37.63
2019-03-30T22:29:30.643Z,39.63
2019-03-30T22:31:58.032Z,43.73
2019-03-30T22:34:29.072Z,35.45
2019-03-30T22:36:56.574Z,44.27
2019-03-30T22:39:23.800Z,41.63
2019-03-30T22:41:51.075Z,42.08
2019-03-30T22:44:18.463Z,43.87
2019-03-30T22:46:45.768Z,45.47
2019-03-30T22:49:13.027Z,50.73
2019-03-30T22:51:40.372Z,45.25
2019-03-30T22:54:07.695Z,45.40
2019-03-30T22:56:34.971Z,51.05
2019-03-30T22:59:02.260Z,48.20
2019-03-30T23:01:29.507Z,48.42
2019-03-30T23:03:56.694Z,46.80
2019-03-30T23:06:23.899Z,45.63
2019-03-30T23:08:51.157Z,41.42
2019-03-30T23:11:18.450Z,44.95
2019-03-30T23:13:45.663Z,40.07
2019-03-30T23:16:12.898Z,37.83
2019-03-30T23:18:40.174Z,40.55
2019-03-30T23:21:07.510Z,34.43
2019-03-30T23:23:34.725Z,29.85
2019-03-30T23:26:01.921Z,30.70
2019-03-30T23:28:29.234Z,35.00
2019-03-30T23:30:56.598Z,29.90
2019-03-30T23:33:23.803Z,27.50
2019-03-30T23:35:51.155Z,30.82
2019-03-30T23:38:18.848Z,28.47
2019-03-30T23:40:46.118Z,28.70
2019-03-30T23:43:13.371Z,29.27
2019-03-30T23:45:40.589Z,25.90
2019-03-30T23:48:08.797Z,28.07
2019-03-30T23:50:36.126Z,28.75
2019-03-30T23:53:07.454Z,25.32
2019-03-30T23:55:34.018Z,26.48
2019-03-30T23:58:01.253Z,28.00
